Algoma Mariner — CFN5517 — position and weather

sailwx.info

Track history (hours):
 
Tides and Currents Weather Stations Pressure Air Temp Water Temp Dewpoint Dewpoint Depression Visibility Wind Speed Wind Dir Waves Ship Positions

Algoma Mariner

Last reported at 2016-Aug-25 20:24 UTC. Time now 2016-Aug-25 23:44 UTC.
Position N 43°13' W 079°13'.

Length 225 m; draft 8.1 m.

Type: Cargo ship. MMSI: 316014050.

Date/timePositionNaut miles runAvg speedWind from/ knotsBaromVisibWave heightAir tempDewpointWater temp
2016-Aug-25 20:24N 43°13' W 079°13'1 0.8
2016-Aug-25 19:29N 43°13' W 079°13'129 4.1
2016-Aug-24 12:17N 44°01' W 076°28'4 5.6
2016-Aug-24 11:34N 44°05' W 076°25'118 7.4
2016-Aug-23 19:33N 45°14' W 074°11'9 7.7
2016-Aug-23 18:25N 45°15' W 073°59'4 4.6
2016-Aug-23 17:33N 45°18' W 073°56'1 0.8
2016-Aug-23 16:33N 45°19' W 073°55'3 3.4
2016-Aug-23 15:33N 45°21' W 073°51'8 7.9
2016-Aug-23 14:33N 45°25' W 073°41'5 5.1
2016-Aug-23 13:33N 45°24' W 073°34'1 0.6
2016-Aug-23 12:22N 45°24' W 073°33'2 2.2
2016-Aug-23 11:26N 45°25' W 073°31'3 3.9
2016-Aug-23 10:33N 45°29' W 073°31'2 1.1
2016-Aug-23 09:10N 45°30' W 073°31'2 3.4
2016-Aug-23 08:33N 45°32' W 073°32'9 8.7
2016-Aug-23 07:33N 45°40' W 073°28'9 9.4
2016-Aug-23 06:33N 45°48' W 073°20'9 9.5
2016-Aug-23 05:33N 45°56' W 073°13'9 9.4
2016-Aug-23 04:33N 46°04' W 073°05'9 9.4
2016-Aug-23 03:33N 46°10' W 072°55'1010.3
2016-Aug-23 02:33N 46°16' W 072°42'  
Track history (hours):
 
Tides and Currents Weather Stations Pressure Air Temp Water Temp Dewpoint Dewpoint Depression Visibility Wind Speed Wind Dir Waves Ship Positions

Algoma Mariner

Last reported at 2016-Aug-25 20:24 UTC. Time now 2016-Aug-25 23:44 UTC.
Position N 43°13' W 079°13'.

Length 225 m; draft 8.1 m.

Type: Cargo ship. MMSI: 316014050.

Date/timePositionNaut miles runAvg speedWind from/ knotsBaromVisibWave heightAir tempDewpointWater temp
2016-Aug-25 20:24N 43°13' W 079°13'1 0.8
2016-Aug-25 19:29N 43°13' W 079°13'129 4.1
2016-Aug-24 12:17N 44°01' W 076°28'4 5.6
2016-Aug-24 11:34N 44°05' W 076°25'118 7.4
2016-Aug-23 19:33N 45°14' W 074°11'9 7.7
2016-Aug-23 18:25N 45°15' W 073°59'4 4.6
2016-Aug-23 17:33N 45°18' W 073°56'1 0.8
2016-Aug-23 16:33N 45°19' W 073°55'3 3.4
2016-Aug-23 15:33N 45°21' W 073°51'8 7.9
2016-Aug-23 14:33N 45°25' W 073°41'5 5.1
2016-Aug-23 13:33N 45°24' W 073°34'1 0.6
2016-Aug-23 12:22N 45°24' W 073°33'2 2.2
2016-Aug-23 11:26N 45°25' W 073°31'3 3.9
2016-Aug-23 10:33N 45°29' W 073°31'2 1.1
2016-Aug-23 09:10N 45°30' W 073°31'2 3.4
2016-Aug-23 08:33N 45°32' W 073°32'9 8.7
2016-Aug-23 07:33N 45°40' W 073°28'9 9.4
2016-Aug-23 06:33N 45°48' W 073°20'9 9.5
2016-Aug-23 05:33N 45°56' W 073°13'9 9.4
2016-Aug-23 04:33N 46°04' W 073°05'9 9.4
2016-Aug-23 03:33N 46°10' W 072°55'1010.3
2016-Aug-23 02:33N 46°16' W 072°42'  

Dump ship's entire track history